KSBD/SBD METAR and TAF weather

Enter ICAO airport designator
Station Type Date Time Source
KSBD METAR 2022/12/02 21:55 UTC NOAA

KSBD 022155Z 00000KT 7SM BKN100 15/06 A3011


Station Type Date Time Source
KSBD Decoded METAR 2022/12/02 21:55 UTC NOAA

Norton Air Force Base / San Bern, CA, United States (KSBD) 34-06N 117-14W
Dec 02, 2022 - 04:55 PM EST / 2022.12.02 2155 UTC
Wind: Calm:0
Visibility: 7 mile(s):0
Sky conditions: mostly cloudy
Temperature: 59 F (15 C)
Dew Point: 42 F (6 C)
Relative Humidity: 54%
Pressure (altimeter): 30.11 in. Hg (1019 hPa)
ob: KSBD 022155Z 00000KT 7SM BKN100 15/06 A3011
cycle: 22

Station Type Date Time Source
KSBD TAF 2022/12/02 18:36 UTC NOAA

TAF KSBD 021734Z 0218/0318 VRB06KT P6SM BKN040
FM022000 25006KT P6SM SCT035 BKN100

Example: see airport list